createdAt,value
2019-01-20T00:01:11.759Z,22.45
2019-01-20T00:03:41.570Z,30.48
2019-01-20T00:06:11.247Z,21.60
2019-01-20T00:08:40.914Z,23.25
2019-01-20T00:11:16.625Z,29.52
2019-01-20T00:13:41.979Z,23.42
2019-01-20T00:16:11.705Z,18.55
2019-01-20T00:18:41.722Z,22.75
2019-01-20T00:21:11.973Z,21.40
2019-01-20T00:23:41.733Z,19.98
2019-01-20T00:26:11.451Z,17.07
2019-01-20T00:28:41.233Z,20.97
2019-01-20T00:31:13.358Z,19.02
2019-01-20T00:33:43.272Z,22.90
2019-01-20T00:36:13.208Z,16.93
2019-01-20T00:38:42.949Z,16.25
2019-01-20T00:41:12.523Z,18.95
2019-01-20T00:43:42.156Z,18.87
2019-01-20T00:46:11.770Z,22.95
2019-01-20T00:48:41.407Z,21.60
2019-01-20T00:51:11.179Z,18.62
2019-01-20T00:53:40.903Z,19.80
2019-01-20T00:56:10.578Z,17.10
2019-01-20T00:58:40.227Z,24.07
2019-01-20T01:01:10.267Z,18.92
2019-01-20T01:03:39.884Z,16.65
2019-01-20T01:06:09.523Z,17.87
2019-01-20T01:08:39.192Z,16.90
2019-01-20T01:11:08.850Z,19.82
2019-01-20T01:13:38.899Z,16.70
2019-01-20T01:16:08.635Z,15.80
2019-01-20T01:18:38.271Z,15.90
2019-01-20T01:21:07.921Z,15.48
2019-01-20T01:23:37.668Z,18.17
2019-01-20T01:26:07.354Z,18.80
2019-01-20T01:28:37.088Z,18.48
2019-01-20T01:31:06.728Z,19.48
2019-01-20T01:33:36.477Z,18.17
2019-01-20T01:36:06.340Z,19.48
2019-01-20T01:38:36.145Z,18.12
2019-01-20T01:41:05.803Z,18.52
2019-01-20T01:43:35.512Z,15.93
2019-01-20T01:46:05.231Z,15.72
2019-01-20T01:48:34.934Z,16.17
2019-01-20T01:51:04.708Z,15.35
2019-01-20T01:53:34.430Z,17.10
2019-01-20T01:56:04.195Z,16.32
2019-01-20T01:58:33.812Z,16.90
2019-01-20T02:01:03.576Z,17.75
2019-01-20T02:03:33.212Z,16.02
2019-01-20T02:06:02.912Z,17.52
2019-01-20T02:08:32.551Z,16.90
2019-01-20T02:11:02.321Z,16.50
2019-01-20T02:13:32.074Z,18.02
2019-01-20T02:16:01.795Z,16.85
2019-01-20T02:18:31.582Z,18.60
2019-01-20T02:21:01.539Z,16.70
2019-01-20T02:23:31.311Z,18.60
2019-01-20T02:26:01.058Z,17.57
2019-01-20T02:28:30.687Z,18.00
2019-01-20T02:31:00.385Z,17.17
2019-01-20T02:33:30.013Z,18.05
2019-01-20T02:35:59.757Z,18.92
2019-01-20T02:38:29.383Z,20.35
2019-01-20T02:40:59.043Z,17.05
2019-01-20T02:43:28.751Z,16.75
2019-01-20T02:45:58.517Z,17.57
2019-01-20T02:48:28.227Z,16.23
2019-01-20T02:50:57.886Z,20.57
2019-01-20T02:53:27.630Z,16.50
2019-01-20T02:55:57.392Z,15.75
2019-01-20T02:58:27.021Z,17.52
2019-01-20T03:00:56.684Z,16.07
2019-01-20T03:03:26.433Z,15.28
2019-01-20T03:05:56.212Z,17.57
2019-01-20T03:08:26.750Z,15.35
2019-01-20T03:10:56.429Z,16.17
2019-01-20T03:13:26.050Z,17.30
2019-01-20T03:15:55.658Z,14.98
2019-01-20T03:18:25.388Z,19.30
2019-01-20T03:20:55.020Z,15.75
2019-01-20T03:23:24.654Z,17.30
2019-01-20T03:25:54.328Z,16.42
2019-01-20T03:28:24.080Z,18.40
2019-01-20T03:30:53.852Z,18.10
2019-01-20T03:33:23.489Z,17.75
2019-01-20T03:35:53.238Z,14.95
2019-01-20T03:38:22.906Z,16.75
2019-01-20T03:40:52.527Z,18.82
2019-01-20T03:43:22.276Z,16.93
2019-01-20T03:45:51.888Z,17.50
2019-01-20T03:48:21.507Z,19.07
2019-01-20T03:50:51.142Z,15.23
2019-01-20T03:53:20.884Z,16.07
2019-01-20T03:55:50.588Z,15.80
2019-01-20T03:58:20.178Z,17.48
2019-01-20T04:00:49.905Z,16.97
2019-01-20T04:03:19.623Z,16.50
2019-01-20T04:05:49.386Z,18.00
2019-01-20T04:08:19.011Z,16.77
2019-01-20T04:10:48.654Z,16.85
2019-01-20T04:13:18.339Z,16.67
2019-01-20T04:15:48.051Z,16.48
2019-01-20T04:18:17.744Z,15.32
2019-01-20T04:20:47.482Z,15.18
2019-01-20T04:23:17.100Z,14.70
2019-01-20T04:25:48.297Z,16.10
2019-01-20T04:28:17.961Z,14.85
2019-01-20T04:30:47.636Z,14.50
2019-01-20T04:33:17.378Z,15.00
2019-01-20T04:35:46.985Z,15.30
2019-01-20T04:38:16.615Z,15.35
2019-01-20T04:40:46.376Z,15.23
2019-01-20T04:43:16.019Z,15.63
2019-01-20T04:45:45.746Z,15.45
2019-01-20T04:48:21.148Z,15.43
2019-01-20T04:50:50.843Z,16.15
2019-01-20T04:53:20.590Z,16.07
2019-01-20T04:55:50.267Z,15.32
2019-01-20T04:58:20.420Z,14.40
2019-01-20T05:00:50.019Z,16.60
2019-01-20T05:03:19.779Z,16.02
2019-01-20T05:05:49.485Z,14.40
2019-01-20T05:08:19.167Z,16.35
2019-01-20T05:10:49.017Z,14.83
2019-01-20T05:13:18.693Z,15.48
2019-01-20T05:15:48.480Z,15.88
2019-01-20T05:18:18.106Z,15.53
2019-01-20T05:20:48.316Z,14.78
2019-01-20T05:23:18.058Z,14.58
2019-01-20T05:25:47.802Z,15.60
2019-01-20T05:28:17.552Z,14.87
2019-01-20T05:30:47.290Z,15.30
2019-01-20T05:33:17.063Z,16.42
2019-01-20T05:35:46.815Z,15.28
2019-01-20T05:38:16.391Z,15.32
2019-01-20T05:40:46.014Z,16.30
2019-01-20T05:43:15.643Z,15.28
2019-01-20T05:45:45.374Z,15.85
2019-01-20T05:48:15.160Z,15.72
2019-01-20T05:50:44.884Z,14.53
2019-01-20T05:53:14.547Z,14.65
2019-01-20T05:55:44.205Z,15.95
2019-01-20T05:58:13.847Z,14.07
2019-01-20T06:00:43.482Z,13.62
2019-01-20T06:03:13.223Z,14.87
2019-01-20T06:05:42.895Z,14.83
2019-01-20T06:08:12.669Z,16.02
2019-01-20T06:10:42.316Z,14.50
2019-01-20T06:13:11.957Z,15.20
2019-01-20T06:15:41.594Z,15.35
2019-01-20T06:18:11.228Z,14.07
2019-01-20T06:20:40.852Z,14.10
2019-01-20T06:23:10.607Z,15.72
2019-01-20T06:25:40.257Z,14.53
2019-01-20T06:28:09.975Z,15.58
2019-01-20T06:30:39.709Z,15.65
2019-01-20T06:33:09.469Z,15.00
2019-01-20T06:35:39.226Z,15.70
2019-01-20T06:38:08.981Z,13.88
2019-01-20T06:40:38.587Z,14.98
2019-01-20T06:43:08.242Z,15.60
2019-01-20T06:45:37.989Z,14.58
2019-01-20T06:48:07.759Z,16.67
2019-01-20T06:50:37.384Z,15.23
2019-01-20T06:53:07.063Z,14.95
2019-01-20T06:55:36.778Z,15.58
2019-01-20T06:58:06.641Z,15.38
2019-01-20T07:00:36.608Z,16.62
2019-01-20T07:03:06.304Z,15.80
2019-01-20T07:05:35.919Z,16.57
2019-01-20T07:08:05.696Z,17.00
2019-01-20T07:10:35.335Z,16.65
2019-01-20T07:13:09.197Z,16.95
2019-01-20T07:15:36.297Z,16.67
2019-01-20T07:18:05.922Z,15.93
2019-01-20T07:20:35.618Z,15.55
2019-01-20T07:23:05.218Z,16.62
2019-01-20T07:25:34.852Z,15.53
2019-01-20T07:28:04.527Z,14.75
2019-01-20T07:30:34.218Z,15.75
2019-01-20T07:33:05.671Z,16.30
2019-01-20T07:35:35.376Z,15.75
2019-01-20T07:38:05.202Z,16.50
2019-01-20T07:40:34.986Z,16.57
2019-01-20T07:43:04.765Z,17.23
2019-01-20T07:45:34.495Z,18.02
2019-01-20T07:48:04.265Z,17.73
2019-01-20T07:50:34.005Z,17.27
2019-01-20T07:53:03.737Z,17.90
2019-01-20T07:55:33.372Z,17.27
2019-01-20T07:58:03.070Z,17.60
2019-01-20T08:00:32.882Z,17.92
2019-01-20T08:03:02.604Z,17.17
2019-01-20T08:05:32.418Z,20.30
2019-01-20T08:08:02.021Z,19.62
2019-01-20T08:10:31.703Z,19.67
2019-01-20T08:13:01.469Z,20.77
2019-01-20T08:15:31.239Z,19.48
2019-01-20T08:18:01.045Z,20.40
2019-01-20T08:20:30.820Z,20.97
2019-01-20T08:23:00.424Z,21.62
2019-01-20T08:25:30.177Z,21.27
2019-01-20T08:27:59.740Z,21.95
2019-01-20T08:30:29.427Z,22.67
2019-01-20T08:32:59.162Z,24.12
2019-01-20T08:35:28.888Z,24.12
2019-01-20T08:37:58.525Z,24.92
2019-01-20T08:40:32.598Z,22.77
2019-01-20T08:43:02.433Z,22.52
2019-01-20T08:46:14.326Z,23.62
2019-01-20T08:48:43.983Z,22.77
2019-01-20T08:51:14.970Z,23.52
2019-01-20T08:53:44.678Z,23.22
2019-01-20T08:56:14.322Z,26.35
2019-01-20T08:58:44.604Z,23.80
2019-01-20T09:01:14.275Z,24.80
2019-01-20T09:03:44.032Z,23.85
2019-01-20T09:06:13.797Z,24.00
2019-01-20T09:08:43.412Z,23.77
2019-01-20T09:11:13.092Z,23.47
2019-01-20T09:13:42.764Z,24.00
2019-01-20T09:16:12.592Z,23.55
2019-01-20T09:18:42.360Z,22.20
2019-01-20T09:21:12.147Z,24.47
2019-01-20T09:23:43.599Z,21.93
2019-01-20T09:26:13.624Z,22.65
2019-01-20T09:28:43.319Z,21.93
2019-01-20T09:31:13.097Z,22.90
2019-01-20T09:33:42.798Z,22.85
2019-01-20T09:36:12.588Z,23.00
2019-01-20T09:38:42.334Z,22.48
2019-01-20T09:44:40.773Z,22.10
2019-01-20T09:47:12.518Z,21.48
2019-01-20T09:49:42.448Z,23.52
2019-01-20T09:52:12.411Z,24.27
2019-01-20T09:54:42.530Z,22.67
2019-01-20T09:57:12.690Z,22.95
2019-01-20T09:59:42.643Z,22.00
2019-01-20T10:02:12.598Z,23.47
2019-01-20T10:04:42.500Z,22.17
2019-01-20T10:07:12.398Z,22.33
2019-01-20T10:09:42.281Z,21.53
2019-01-20T10:12:12.249Z,23.27
2019-01-20T10:14:42.287Z,23.53
2019-01-20T10:17:12.723Z,22.00
2019-01-20T10:19:52.677Z,21.87
2019-01-20T10:22:25.669Z,21.67
2019-01-20T10:24:59.020Z,20.40
2019-01-20T10:27:30.534Z,21.17
2019-01-20T10:30:00.710Z,22.83
2019-01-20T10:32:30.901Z,22.23
2019-01-20T10:35:01.367Z,21.47
2019-01-20T10:37:31.813Z,22.77
2019-01-20T10:40:04.241Z,21.20
2019-01-20T10:42:34.317Z,21.30
2019-01-20T10:45:05.919Z,23.97
2019-01-20T10:47:35.861Z,21.60
2019-01-20T10:50:07.854Z,19.50
2019-01-20T10:52:38.077Z,20.73
2019-01-20T10:55:08.531Z,20.40
2019-01-20T10:57:38.512Z,21.43
2019-01-20T11:00:13.386Z,20.77
2019-01-20T11:02:43.376Z,21.00
2019-01-20T11:05:15.833Z,20.97
2019-01-20T11:07:46.133Z,20.83
2019-01-20T11:10:16.205Z,23.17
2019-01-20T11:12:46.213Z,23.00
2019-01-20T11:15:16.296Z,21.90
2019-01-20T11:17:46.285Z,22.97
2019-01-20T11:20:16.279Z,22.33
2019-01-20T11:22:46.228Z,22.60
2019-01-20T11:25:21.910Z,21.77
2019-01-20T11:27:51.857Z,19.37
2019-01-20T11:30:21.836Z,23.10
2019-01-20T11:32:51.793Z,22.97
2019-01-20T11:35:22.786Z,23.50
2019-01-20T11:37:52.800Z,22.37
2019-01-20T11:40:22.591Z,22.13
2019-01-20T11:42:52.415Z,22.57
2019-01-20T11:45:24.471Z,23.43
2019-01-20T11:47:54.250Z,23.50
2019-01-20T11:50:24.206Z,21.90
2019-01-20T11:52:54.064Z,22.00
2019-01-20T11:55:24.266Z,21.63
2019-01-20T11:57:54.120Z,23.17
2019-01-20T12:00:32.804Z,22.37
2019-01-20T12:03:02.717Z,23.23
2019-01-20T12:05:34.306Z,24.33
2019-01-20T12:08:04.334Z,23.63
2019-01-20T12:10:34.252Z,24.30
2019-01-20T12:13:05.831Z,26.80
2019-01-20T12:15:36.306Z,25.50
2019-01-20T12:18:06.362Z,23.63
2019-01-20T12:20:36.201Z,25.33
2019-01-20T12:23:06.136Z,22.97
2019-01-20T12:25:36.143Z,23.40
2019-01-20T12:28:06.081Z,24.30
2019-01-20T12:30:37.706Z,26.67
2019-01-20T12:33:08.046Z,24.67
2019-01-20T12:35:38.675Z,23.97
2019-01-20T12:38:08.751Z,23.83
2019-01-20T12:40:46.853Z,22.50
2019-01-20T12:43:16.783Z,22.00
2019-01-20T12:45:46.703Z,23.07
2019-01-20T12:48:16.751Z,25.23
2019-01-20T12:50:46.759Z,22.20
2019-01-20T12:53:16.720Z,23.27
2019-01-20T12:55:46.624Z,24.03
2019-01-20T12:58:16.502Z,24.37
2019-01-20T13:00:46.480Z,23.10
2019-01-20T13:03:16.492Z,24.50
2019-01-20T13:05:46.423Z,24.07
2019-01-20T13:08:16.539Z,24.03
2019-01-20T13:10:46.404Z,23.70
2019-01-20T13:13:16.357Z,24.00
2019-01-20T13:15:46.226Z,23.70
2019-01-20T13:18:16.222Z,22.50
2019-01-20T13:20:45.931Z,24.07
2019-01-20T13:23:15.824Z,24.33
2019-01-20T13:25:45.766Z,24.87
2019-01-20T13:28:15.759Z,23.60
2019-01-20T13:30:46.038Z,23.57
2019-01-20T13:33:15.961Z,24.10
2019-01-20T13:35:46.412Z,25.77
2019-01-20T13:38:18.172Z,23.27
2019-01-20T13:40:51.174Z,24.40
2019-01-20T13:43:21.037Z,24.57
2019-01-20T13:45:50.896Z,25.53
2019-01-20T13:48:20.793Z,25.10
2019-01-20T13:50:50.592Z,27.50
2019-01-20T13:53:20.450Z,25.93
2019-01-20T13:55:50.343Z,25.97
2019-01-20T13:58:20.344Z,24.23
2019-01-20T14:00:50.209Z,26.90
2019-01-20T14:03:20.145Z,26.93
2019-01-20T14:05:50.171Z,26.17
2019-01-20T14:08:20.113Z,27.03
2019-01-20T14:10:50.119Z,25.63
2019-01-20T14:13:20.120Z,28.10
2019-01-20T14:15:50.042Z,28.07
2019-01-20T14:18:19.940Z,27.93
2019-01-20T14:20:49.809Z,27.53
2019-01-20T14:23:20.141Z,28.20
2019-01-20T14:25:50.303Z,29.13
2019-01-20T14:28:20.535Z,27.33
2019-01-20T14:30:50.450Z,27.80
2019-01-20T14:33:20.407Z,27.50
2019-01-20T14:35:50.238Z,27.87
2019-01-20T14:38:20.085Z,27.57
2019-01-20T14:40:50.069Z,27.03
2019-01-20T14:43:19.874Z,26.93
2019-01-20T14:45:49.612Z,28.00
2019-01-20T14:48:19.723Z,27.87
2019-01-20T14:50:49.721Z,27.73
2019-01-20T14:53:19.672Z,28.07
2019-01-20T14:55:51.313Z,27.97
2019-01-20T14:58:23.626Z,27.93
2019-01-20T15:00:52.867Z,28.37
2019-01-20T15:03:22.699Z,29.93
2019-01-20T15:05:52.998Z,28.53
2019-01-20T15:08:23.005Z,30.20
2019-01-20T15:10:53.016Z,28.67
2019-01-20T15:13:24.311Z,27.43
2019-01-20T15:16:13.132Z,30.13
2019-01-20T15:18:42.909Z,30.20
2019-01-20T15:21:12.744Z,29.57
2019-01-20T15:23:45.695Z,30.70
2019-01-20T15:26:18.208Z,31.50
2019-01-20T15:28:54.193Z,32.63
2019-01-20T15:31:24.518Z,32.20
2019-01-20T15:33:56.140Z,33.30
2019-01-20T15:36:29.329Z,33.63
2019-01-20T15:39:02.348Z,32.00
2019-01-20T15:41:33.468Z,34.07
2019-01-20T15:44:04.717Z,37.13
2019-01-20T15:46:37.804Z,32.57
2019-01-20T15:49:09.338Z,33.53
2019-01-20T15:51:39.659Z,33.70
2019-01-20T15:54:09.816Z,34.03
2019-01-20T15:56:42.247Z,32.43
2019-01-20T15:59:14.791Z,33.90
2019-01-20T16:01:45.016Z,32.57
2019-01-20T16:04:17.450Z,35.87
2019-01-20T16:06:47.692Z,30.80
2019-01-20T16:09:19.333Z,30.90
2019-01-20T16:11:49.462Z,30.67
2019-01-20T16:14:19.397Z,32.30
2019-01-20T16:16:50.793Z,30.60
2019-01-20T16:19:20.879Z,32.20
2019-01-20T16:21:53.666Z,29.90
2019-01-20T16:24:23.753Z,32.10
2019-01-20T16:26:53.895Z,33.35
2019-01-20T16:29:23.822Z,30.12
2019-01-20T16:31:53.938Z,28.52
2019-01-20T16:34:26.324Z,31.37
2019-01-20T16:36:56.537Z,31.07
2019-01-20T16:39:26.705Z,32.80
2019-01-20T16:41:57.792Z,32.95
2019-01-20T16:44:27.714Z,32.17
2019-01-20T16:46:57.549Z,33.90
2019-01-20T16:49:27.259Z,35.92
2019-01-20T16:51:56.931Z,34.55
2019-01-20T16:54:26.722Z,34.73
2019-01-20T16:56:56.524Z,36.40
2019-01-20T16:59:26.572Z,33.18
2019-01-20T17:01:56.329Z,32.30
2019-01-20T17:04:26.105Z,32.17
2019-01-20T17:06:55.898Z,33.80
2019-01-20T17:09:25.678Z,31.68
2019-01-20T17:11:55.454Z,33.98
2019-01-20T17:14:25.254Z,37.13
2019-01-20T17:16:54.919Z,35.13
2019-01-20T17:19:24.719Z,35.20
2019-01-20T17:21:54.538Z,35.68
2019-01-20T17:24:24.254Z,33.60
2019-01-20T17:26:54.138Z,31.37
2019-01-20T17:29:24.392Z,32.13
2019-01-20T17:31:54.151Z,32.98
2019-01-20T17:34:23.995Z,34.38
2019-01-20T17:36:54.331Z,34.20
2019-01-20T17:39:24.389Z,32.40
2019-01-20T17:41:54.185Z,32.80
2019-01-20T17:44:24.251Z,31.50
2019-01-20T17:46:54.258Z,33.85
2019-01-20T17:49:24.243Z,30.80
2019-01-20T17:51:54.372Z,34.75
2019-01-20T17:54:24.281Z,30.55
2019-01-20T17:56:54.119Z,30.75
2019-01-20T17:59:23.923Z,32.58
2019-01-20T18:01:53.892Z,31.25
2019-01-20T18:04:23.889Z,32.53
2019-01-20T18:06:53.680Z,30.53
2019-01-20T18:09:23.866Z,33.60
2019-01-20T18:11:53.636Z,30.37
2019-01-20T18:14:23.490Z,30.60
2019-01-20T18:16:53.275Z,35.38
2019-01-20T18:19:23.056Z,35.05
2019-01-20T18:21:53.181Z,33.48
2019-01-20T18:24:22.917Z,34.27
2019-01-20T18:26:52.847Z,35.05
2019-01-20T18:29:22.692Z,32.70
2019-01-20T18:31:52.628Z,31.60
2019-01-20T18:34:22.451Z,30.82
2019-01-20T18:36:52.368Z,32.20
2019-01-20T18:39:22.189Z,31.93
2019-01-20T18:41:52.098Z,31.93
2019-01-20T18:44:22.019Z,30.77
2019-01-20T18:46:51.868Z,30.25
2019-01-20T18:49:21.589Z,32.70
2019-01-20T18:51:51.540Z,33.25
2019-01-20T18:54:21.442Z,32.67
2019-01-20T18:56:51.381Z,32.95
2019-01-20T18:59:21.314Z,31.68
2019-01-20T19:01:51.173Z,30.65
2019-01-20T19:04:21.144Z,33.78
2019-01-20T19:06:51.095Z,32.75
2019-01-20T19:09:21.925Z,32.98
2019-01-20T19:11:52.996Z,35.15
2019-01-20T19:14:23.027Z,36.90
2019-01-20T19:16:52.851Z,35.25
2019-01-20T19:19:22.811Z,37.98
2019-01-20T19:21:52.824Z,35.75
2019-01-20T19:24:22.600Z,35.60
2019-01-20T19:26:52.535Z,35.75
2019-01-20T19:29:23.145Z,34.80
2019-01-20T19:31:53.029Z,34.83
2019-01-20T19:34:23.573Z,33.98
2019-01-20T19:36:53.474Z,32.95
2019-01-20T19:39:23.265Z,33.40
2019-01-20T19:41:53.460Z,31.17
2019-01-20T19:44:23.677Z,33.63
2019-01-20T19:46:53.420Z,33.40
2019-01-20T19:49:23.571Z,35.75
2019-01-20T19:51:53.300Z,37.15
2019-01-20T19:54:23.153Z,35.92
2019-01-20T19:56:55.361Z,34.25
2019-01-20T19:59:25.159Z,31.87
2019-01-20T20:01:54.915Z,35.28
2019-01-20T20:04:25.035Z,34.38
2019-01-20T20:06:55.917Z,34.95
2019-01-20T20:09:26.033Z,35.52
2019-01-20T20:11:55.937Z,35.58
2019-01-20T20:14:25.815Z,36.88
2019-01-20T20:16:55.838Z,37.58
2019-01-20T20:19:25.664Z,35.15
2019-01-20T20:21:55.420Z,33.95
2019-01-20T20:24:25.802Z,32.75
2019-01-20T20:26:55.802Z,34.80
2019-01-20T20:29:25.649Z,34.63
2019-01-20T20:31:55.919Z,34.43
2019-01-20T20:34:25.657Z,35.45
2019-01-20T20:36:55.509Z,34.55
2019-01-20T20:39:25.389Z,35.20
2019-01-20T20:41:55.165Z,35.20
2019-01-20T20:44:25.729Z,38.20
2019-01-20T20:46:55.518Z,36.28
2019-01-20T20:49:25.700Z,37.83
2019-01-20T20:51:55.884Z,37.83
2019-01-20T20:54:25.603Z,35.00
2019-01-20T20:56:55.434Z,35.78
2019-01-20T20:59:25.364Z,39.27
2019-01-20T21:01:55.562Z,36.73
2019-01-20T21:04:25.457Z,35.95
2019-01-20T21:06:55.667Z,35.40
2019-01-20T21:09:25.395Z,35.63
2019-01-20T21:11:55.236Z,36.30
2019-01-20T21:14:26.929Z,34.87
2019-01-20T21:16:56.953Z,34.20
2019-01-20T21:19:27.009Z,36.42
2019-01-20T21:21:56.751Z,37.63
2019-01-20T21:24:28.084Z,36.70
2019-01-20T21:26:58.235Z,38.75
2019-01-20T21:29:29.245Z,35.78
2019-01-20T21:32:03.492Z,119.30
2019-01-20T21:34:40.441Z,48.63
2019-01-20T21:37:13.529Z,59.27
2019-01-20T21:39:43.547Z,41.28
2019-01-20T21:42:15.444Z,35.25
2019-01-20T21:44:46.736Z,36.33
2019-01-20T21:47:16.820Z,37.05
2019-01-20T21:50:08.353Z,34.48
2019-01-20T21:55:28.775Z,36.48
2019-01-20T21:58:25.297Z,35.43
2019-01-20T22:01:04.282Z,38.02
2019-01-20T22:03:37.243Z,36.03
2019-01-20T22:06:15.708Z,37.75
2019-01-20T22:09:16.568Z,35.13
2019-01-20T22:11:58.086Z,36.30
2019-01-20T22:18:03.325Z,36.05
2019-01-20T22:21:18.111Z,35.00
2019-01-20T22:26:53.853Z,35.90
2019-01-20T22:29:58.874Z,36.98
2019-01-20T22:32:38.612Z,35.55
2019-01-20T22:36:03.512Z,34.33
2019-01-20T22:38:12.451Z,34.45
2019-01-20T22:40:42.451Z,34.40
2019-01-20T22:43:12.434Z,35.45
2019-01-20T22:45:42.486Z,36.10
2019-01-20T22:48:12.561Z,36.48
2019-01-20T22:50:42.489Z,37.23
2019-01-20T22:53:12.476Z,35.75
2019-01-20T22:55:42.839Z,36.83
2019-01-20T22:58:15.154Z,37.57
2019-01-20T23:00:59.593Z,34.90
2019-01-20T23:03:29.940Z,36.30
2019-01-20T23:05:59.906Z,36.30
2019-01-20T23:08:31.562Z,35.40
2019-01-20T23:11:23.017Z,34.80
2019-01-20T23:13:55.331Z,33.95
2019-01-20T23:16:28.593Z,35.53
2019-01-20T23:19:00.241Z,36.53
2019-01-20T23:21:30.454Z,36.50
2019-01-20T23:24:00.566Z,35.63
2019-01-20T23:26:30.699Z,36.10
2019-01-20T23:29:00.735Z,37.15
2019-01-20T23:31:30.705Z,35.97
2019-01-20T23:34:00.714Z,34.55
2019-01-20T23:36:30.731Z,36.55
2019-01-20T23:39:00.800Z,34.88
2019-01-20T23:41:31.242Z,34.98
2019-01-20T23:44:01.530Z,34.70
2019-01-20T23:46:31.551Z,35.88
2019-01-20T23:49:01.599Z,36.23
2019-01-20T23:51:31.691Z,36.25
2019-01-20T23:54:03.039Z,37.08
2019-01-20T23:56:34.411Z,36.93
2019-01-20T23:59:04.566Z,39.15
